createdAt,value
2019-01-06T00:02:07.956Z,6.18
2019-01-06T00:04:59.421Z,6.17
2019-01-06T00:07:54.957Z,6.15
2019-01-06T00:10:45.626Z,6.13
2019-01-06T00:13:34.070Z,6.17
2019-01-06T00:16:40.824Z,6.19
2019-01-06T00:19:35.950Z,6.15
2019-01-06T00:22:27.361Z,6.14
2019-01-06T00:25:15.816Z,6.15
2019-01-06T00:28:10.890Z,6.14
2019-01-06T00:30:53.390Z,6.19
2019-01-06T00:33:40.921Z,6.14
2019-01-06T00:36:28.103Z,6.23
2019-01-06T00:39:16.546Z,6.21
2019-01-06T00:42:11.681Z,6.21
2019-01-06T00:45:12.821Z,6.31
2019-01-06T00:48:00.064Z,6.27
2019-01-06T00:50:47.841Z,6.29
2019-01-06T00:53:56.477Z,6.34
2019-01-06T00:56:51.637Z,6.31
2019-01-06T00:59:49.572Z,6.32
2019-01-06T01:02:44.756Z,6.35
2019-01-06T01:05:33.733Z,6.37
2019-01-06T01:08:40.979Z,6.39
2019-01-06T01:11:27.935Z,6.34
2019-01-06T01:14:14.402Z,6.40
2019-01-06T01:17:03.154Z,6.38
2019-01-06T01:19:50.519Z,6.43
2019-01-06T01:22:45.266Z,6.47
2019-01-06T01:25:49.250Z,6.47
2019-01-06T01:28:41.845Z,6.44
2019-01-06T01:31:36.978Z,6.43
2019-01-06T01:34:42.124Z,6.45
2019-01-06T01:37:30.202Z,6.42
2019-01-06T01:40:18.335Z,6.35
2019-01-06T01:43:16.062Z,6.43
2019-01-06T01:46:04.015Z,6.39
2019-01-06T01:48:51.308Z,6.43
2019-01-06T01:51:48.555Z,6.41
2019-01-06T01:54:29.586Z,6.40
2019-01-06T01:57:30.250Z,6.45
2019-01-06T02:00:29.646Z,6.47
2019-01-06T02:03:21.687Z,6.45
2019-01-06T02:06:25.756Z,6.44
2019-01-06T02:09:26.785Z,6.39
2019-01-06T02:12:18.379Z,6.42
2019-01-06T02:15:06.334Z,6.43
2019-01-06T02:17:54.104Z,6.39
2019-01-06T02:20:52.183Z,6.36
2019-01-06T02:23:40.325Z,6.31
2019-01-06T02:26:31.768Z,6.26
2019-01-06T02:29:26.370Z,6.26
2019-01-06T02:32:21.759Z,6.23
2019-01-06T02:35:13.185Z,6.19
2019-01-06T02:38:16.703Z,6.18
2019-01-06T02:41:23.760Z,6.20
2019-01-06T02:44:13.706Z,6.24
2019-01-06T02:47:08.575Z,6.31
2019-01-06T02:49:56.911Z,6.19
2019-01-06T02:52:45.720Z,6.25
2019-01-06T02:55:27.937Z,6.28
2019-01-06T02:58:16.740Z,6.29
2019-01-06T03:01:03.990Z,6.24
2019-01-06T03:03:53.436Z,6.26
2019-01-06T03:06:40.257Z,6.31
2019-01-06T03:09:46.950Z,6.29
2019-01-06T03:12:35.354Z,6.31
2019-01-06T03:15:30.836Z,6.30
2019-01-06T03:18:39.428Z,6.27
2019-01-06T03:21:28.008Z,6.31
2019-01-06T03:24:28.518Z,6.30
2019-01-06T03:27:10.695Z,6.36
2019-01-06T03:30:07.621Z,6.33
2019-01-06T03:32:54.745Z,6.34
2019-01-06T03:35:43.020Z,6.39
2019-01-06T03:38:28.864Z,6.35
2019-01-06T03:41:26.423Z,6.31
2019-01-06T03:44:29.727Z,6.30
2019-01-06T03:47:18.713Z,6.25
2019-01-06T03:50:03.349Z,6.33
2019-01-06T03:52:51.968Z,6.25
2019-01-06T03:55:43.254Z,6.24
2019-01-06T03:58:32.011Z,6.24
2019-01-06T04:01:20.799Z,6.24
2019-01-06T04:04:17.527Z,6.25
2019-01-06T04:07:23.387Z,6.21
2019-01-06T04:10:12.992Z,6.24
2019-01-06T04:13:03.926Z,6.17
2019-01-06T04:15:52.643Z,6.20
2019-01-06T04:18:38.080Z,6.16
2019-01-06T04:21:25.951Z,6.16
2019-01-06T04:24:21.851Z,6.19
2019-01-06T04:27:26.308Z,6.17
2019-01-06T04:30:34.566Z,6.17
2019-01-06T04:33:21.572Z,6.22
2019-01-06T04:36:09.756Z,6.16
2019-01-06T04:38:57.133Z,6.18
2019-01-06T04:41:46.493Z,6.20
2019-01-06T04:44:34.954Z,6.19
2019-01-06T04:47:35.316Z,6.21
2019-01-06T04:50:42.664Z,6.22
2019-01-06T04:53:29.614Z,6.17
2019-01-06T04:56:18.801Z,6.21
2019-01-06T04:59:08.634Z,6.22
2019-01-06T05:02:03.898Z,6.20
2019-01-06T05:05:01.366Z,6.17
2019-01-06T05:07:56.246Z,6.24
2019-01-06T05:10:43.851Z,6.21
2019-01-06T05:13:32.029Z,6.24
2019-01-06T05:16:20.568Z,6.21
2019-01-06T05:19:12.653Z,6.22
2019-01-06T05:22:01.095Z,6.18
2019-01-06T05:24:48.484Z,6.23
2019-01-06T05:27:37.689Z,6.18
2019-01-06T05:30:25.347Z,6.20
2019-01-06T05:33:12.076Z,6.16
2019-01-06T05:36:01.965Z,6.20
2019-01-06T05:38:48.963Z,6.18
2019-01-06T05:41:36.242Z,6.17
2019-01-06T05:44:31.797Z,6.15
2019-01-06T05:47:19.222Z,6.16
2019-01-06T05:50:06.370Z,6.21
2019-01-06T05:52:53.020Z,6.17
2019-01-06T05:55:45.661Z,6.18
2019-01-06T05:58:29.065Z,6.17
2019-01-06T06:01:16.165Z,6.22
2019-01-06T06:04:03.119Z,6.22
2019-01-06T06:06:54.997Z,6.19
2019-01-06T06:09:49.730Z,6.16
2019-01-06T06:12:45.753Z,6.25
2019-01-06T06:15:43.061Z,6.20
2019-01-06T06:18:50.229Z,6.19
2019-01-06T06:21:47.331Z,6.22
2019-01-06T06:24:35.034Z,6.17
2019-01-06T06:27:23.271Z,6.18
2019-01-06T06:30:33.945Z,6.21
2019-01-06T06:33:32.000Z,6.23
2019-01-06T06:36:33.601Z,6.18
2019-01-06T06:39:27.437Z,6.24
2019-01-06T06:42:16.913Z,6.23
2019-01-06T06:45:25.189Z,6.21
2019-01-06T06:48:35.878Z,6.28
2019-01-06T06:51:36.020Z,6.25
2019-01-06T06:54:28.330Z,6.22
2019-01-06T06:58:06.089Z,6.21
2019-01-06T07:01:01.412Z,6.24
2019-01-06T07:04:13.961Z,6.23
2019-01-06T07:07:09.570Z,6.25
2019-01-06T07:09:58.109Z,6.23
2019-01-06T07:12:45.011Z,6.26
2019-01-06T07:15:59.483Z,6.25
2019-01-06T07:18:46.322Z,6.25
2019-01-06T07:21:34.614Z,6.23
2019-01-06T07:24:47.215Z,6.21
2019-01-06T07:27:47.991Z,6.20
2019-01-06T07:30:49.637Z,6.18
2019-01-06T07:33:35.128Z,6.23
2019-01-06T07:36:23.512Z,6.15
2019-01-06T07:39:29.735Z,6.13
2019-01-06T07:42:29.289Z,6.10
2019-01-06T07:45:28.321Z,6.04
2019-01-06T07:48:46.313Z,6.02
2019-01-06T07:51:50.866Z,6.08
2019-01-06T07:54:52.469Z,6.01
2019-01-06T07:57:43.540Z,6.02
2019-01-06T08:00:44.891Z,6.07
2019-01-06T08:03:32.239Z,6.08
2019-01-06T08:06:36.850Z,5.99
2019-01-06T08:09:45.430Z,6.01
2019-01-06T08:12:37.986Z,6.00
2019-01-06T08:15:25.487Z,5.95
2019-01-06T08:18:36.694Z,5.93
2019-01-06T08:21:32.283Z,5.91
2019-01-06T08:24:44.497Z,5.89
2019-01-06T08:27:26.540Z,5.85
2019-01-06T08:30:17.012Z,5.92
2019-01-06T08:33:12.391Z,5.95
2019-01-06T08:36:09.636Z,5.96
2019-01-06T08:38:59.067Z,5.98
2019-01-06T08:41:50.576Z,6.01
2019-01-06T08:44:44.994Z,6.02
2019-01-06T08:47:33.750Z,6.05
2019-01-06T08:50:35.434Z,6.00
2019-01-06T08:53:34.057Z,6.02
2019-01-06T08:56:36.971Z,5.99
2019-01-06T08:59:20.607Z,6.06
2019-01-06T09:02:15.884Z,6.03
2019-01-06T09:05:22.536Z,6.02
2019-01-06T09:08:26.145Z,6.12
2019-01-06T09:11:24.195Z,6.10
2019-01-06T09:14:20.928Z,6.08
2019-01-06T09:17:09.099Z,6.13
2019-01-06T09:20:12.212Z,6.13
2019-01-06T09:23:10.061Z,6.13
2019-01-06T09:26:15.849Z,6.17
2019-01-06T09:29:04.305Z,6.16
2019-01-06T09:32:02.116Z,6.22
2019-01-06T09:34:37.717Z,6.23
2019-01-06T09:37:37.377Z,6.25
2019-01-06T09:40:40.255Z,6.26
2019-01-06T09:43:46.588Z,6.28
2019-01-06T09:46:33.527Z,6.35
2019-01-06T09:49:31.220Z,6.34
2019-01-06T09:52:18.391Z,6.43
2019-01-06T09:55:06.888Z,6.42
2019-01-06T09:57:49.828Z,6.48
2019-01-06T10:00:38.452Z,6.48
2019-01-06T10:03:30.011Z,6.45
2019-01-06T10:06:07.210Z,6.61
2019-01-06T10:08:55.155Z,6.63
2019-01-06T10:11:42.053Z,6.68
2019-01-06T10:14:42.056Z,6.84
2019-01-06T10:17:48.692Z,6.78
2019-01-06T10:20:55.428Z,6.83
2019-01-06T10:23:45.242Z,6.86
2019-01-06T10:26:40.042Z,6.91
2019-01-06T10:29:20.975Z,6.92
2019-01-06T10:32:08.532Z,6.89
2019-01-06T10:35:07.545Z,6.97
2019-01-06T10:37:54.230Z,7.02
2019-01-06T10:40:51.051Z,7.08
2019-01-06T10:43:38.766Z,7.14
2019-01-06T10:46:27.174Z,7.21
2019-01-06T10:49:20.714Z,7.29
2019-01-06T10:52:26.589Z,7.34
2019-01-06T10:55:18.793Z,7.38
2019-01-06T10:58:13.447Z,7.45
2019-01-06T11:01:13.774Z,7.45
2019-01-06T11:04:05.092Z,7.45
2019-01-06T11:06:51.937Z,7.48
2019-01-06T11:09:38.745Z,7.49
2019-01-06T11:12:25.654Z,7.45
2019-01-06T11:15:19.895Z,7.46
2019-01-06T11:18:07.123Z,7.42
2019-01-06T11:20:48.285Z,7.50
2019-01-06T11:23:45.628Z,7.48
2019-01-06T11:26:31.291Z,7.58
2019-01-06T11:29:27.825Z,7.61
2019-01-06T11:32:18.583Z,7.64
2019-01-06T11:35:13.419Z,7.69
2019-01-06T11:38:00.418Z,7.66
2019-01-06T11:40:54.875Z,7.72
2019-01-06T11:43:52.717Z,7.74
2019-01-06T11:46:43.559Z,7.72
2019-01-06T11:49:30.459Z,7.84
2019-01-06T11:52:38.984Z,7.83
2019-01-06T11:55:23.212Z,7.97
2019-01-06T11:58:11.973Z,7.95
2019-01-06T12:01:12.057Z,7.95
2019-01-06T12:03:55.781Z,8.00
2019-01-06T12:06:50.815Z,7.95
2019-01-06T12:09:41.262Z,7.91
2019-01-06T12:12:29.437Z,8.00
2019-01-06T12:15:31.416Z,8.00
2019-01-06T12:18:18.337Z,8.00
2019-01-06T12:21:19.518Z,7.89
2019-01-06T12:24:13.343Z,7.92
2019-01-06T12:27:06.508Z,7.91
2019-01-06T12:29:57.890Z,7.87
2019-01-06T12:32:45.852Z,7.93
2019-01-06T12:35:32.803Z,7.94
2019-01-06T12:38:21.913Z,8.00
2019-01-06T12:41:20.316Z,8.04
2019-01-06T12:44:08.256Z,8.02
2019-01-06T12:46:56.889Z,8.04
2019-01-06T12:49:37.727Z,8.12
2019-01-06T12:52:28.991Z,8.08
2019-01-06T12:55:10.250Z,8.05
2019-01-06T12:57:58.167Z,8.06
2019-01-06T13:00:57.742Z,7.96
2019-01-06T13:03:45.783Z,8.05
2019-01-06T13:06:31.245Z,8.00
2019-01-06T13:09:19.044Z,8.00
2019-01-06T13:12:11.922Z,7.91
2019-01-06T13:15:09.685Z,7.87
2019-01-06T13:17:53.592Z,7.83
2019-01-06T13:20:45.176Z,7.79
2019-01-06T13:23:34.447Z,7.81
2019-01-06T13:26:22.964Z,7.81
2019-01-06T13:29:14.687Z,7.83
2019-01-06T13:32:04.686Z,7.85
2019-01-06T13:34:52.981Z,7.81
2019-01-06T13:37:40.458Z,7.76
2019-01-06T13:40:29.039Z,7.75
2019-01-06T13:43:16.967Z,7.89
2019-01-06T13:46:18.205Z,7.83
2019-01-06T13:49:07.302Z,7.82
2019-01-06T13:51:54.697Z,7.84
2019-01-06T13:55:01.583Z,7.84
2019-01-06T13:58:02.379Z,7.83
2019-01-06T14:00:53.350Z,7.75
2019-01-06T14:03:34.988Z,7.70
2019-01-06T14:06:24.956Z,7.63
2019-01-06T14:09:12.659Z,7.59
2019-01-06T14:12:10.978Z,7.61
2019-01-06T14:14:58.482Z,7.56
2019-01-06T14:17:46.141Z,7.59
2019-01-06T14:20:41.015Z,7.58
2019-01-06T14:23:32.085Z,7.44
2019-01-06T14:26:25.448Z,7.44
2019-01-06T14:29:13.449Z,7.37
2019-01-06T14:32:01.778Z,7.33
2019-01-06T14:34:42.991Z,7.28
2019-01-06T14:37:23.003Z,7.21
2019-01-06T14:40:18.441Z,7.16
2019-01-06T14:43:23.186Z,7.11
2019-01-06T14:46:18.966Z,7.07
2019-01-06T14:49:23.223Z,7.11
2019-01-06T14:52:11.755Z,7.02
2019-01-06T14:55:01.872Z,7.00
2019-01-06T14:57:51.155Z,7.03
2019-01-06T15:00:51.053Z,6.97
2019-01-06T15:03:39.612Z,6.87
2019-01-06T15:06:32.891Z,6.89
2019-01-06T15:09:24.830Z,6.85
2019-01-06T15:12:26.312Z,6.78
2019-01-06T15:15:21.751Z,6.72
2019-01-06T15:18:23.076Z,6.64
2019-01-06T15:21:30.056Z,6.57
2019-01-06T15:24:17.299Z,6.55
2019-01-06T15:27:15.664Z,6.53
2019-01-06T15:30:03.883Z,6.48
2019-01-06T15:32:52.867Z,6.44
2019-01-06T15:35:39.877Z,6.42
2019-01-06T15:38:36.101Z,6.42
2019-01-06T15:41:30.490Z,6.39
2019-01-06T15:44:28.055Z,6.37
2019-01-06T15:47:14.965Z,6.32
2019-01-06T15:50:11.366Z,6.25
2019-01-06T15:52:58.460Z,6.24
2019-01-06T15:55:52.830Z,6.21
2019-01-06T15:58:58.874Z,6.21
2019-01-06T16:01:59.573Z,6.24
2019-01-06T16:04:46.452Z,6.19
2019-01-06T16:07:33.283Z,6.13
2019-01-06T16:10:21.010Z,6.16
2019-01-06T16:13:09.703Z,6.12
2019-01-06T16:15:54.952Z,6.06
2019-01-06T16:18:42.412Z,6.06
2019-01-06T16:21:38.307Z,6.05
2019-01-06T16:24:38.437Z,6.02
2019-01-06T16:27:33.625Z,5.98
2019-01-06T16:30:20.387Z,5.99
2019-01-06T16:33:09.271Z,5.99
2019-01-06T16:36:00.065Z,5.96
2019-01-06T16:39:06.902Z,5.90
2019-01-06T16:41:57.035Z,5.94
2019-01-06T16:44:44.216Z,5.88
2019-01-06T16:47:31.235Z,5.88
2019-01-06T16:50:32.360Z,5.88
2019-01-06T16:53:24.275Z,5.88
2019-01-06T16:56:15.226Z,5.88
2019-01-06T16:59:03.511Z,5.79
2019-01-06T17:01:55.980Z,5.88
2019-01-06T17:04:44.799Z,5.80
2019-01-06T17:07:35.318Z,5.80
2019-01-06T17:10:22.141Z,5.72
2019-01-06T17:13:10.926Z,5.72
2019-01-06T17:16:02.786Z,5.66
2019-01-06T17:18:51.148Z,5.69
2019-01-06T17:21:23.962Z,5.69
2019-01-06T17:24:24.028Z,5.67
2019-01-06T17:27:15.488Z,5.69
2019-01-06T17:30:19.728Z,5.69
2019-01-06T17:33:03.582Z,5.62
2019-01-06T17:35:54.306Z,5.62
2019-01-06T17:38:40.773Z,5.65
2019-01-06T17:41:25.776Z,5.69
2019-01-06T17:44:23.828Z,5.81
2019-01-06T17:47:14.821Z,5.82
2019-01-06T17:50:12.410Z,5.84
2019-01-06T17:52:59.385Z,5.84
2019-01-06T17:55:47.852Z,5.89
2019-01-06T17:58:34.885Z,5.81
2019-01-06T18:01:32.418Z,5.90
2019-01-06T18:04:18.932Z,5.98
2019-01-06T18:07:25.086Z,5.85
2019-01-06T18:10:11.980Z,5.91
2019-01-06T18:12:58.324Z,5.89
2019-01-06T18:15:58.748Z,5.86
2019-01-06T18:18:55.198Z,5.83
2019-01-06T18:21:58.254Z,5.86
2019-01-06T18:24:56.373Z,5.82
2019-01-06T18:28:02.745Z,5.80
2019-01-06T18:30:49.633Z,5.79
2019-01-06T18:33:43.711Z,5.82
2019-01-06T18:36:49.064Z,5.81
2019-01-06T18:39:40.049Z,5.80
2019-01-06T18:42:31.386Z,5.83
2019-01-06T18:45:25.965Z,5.93
2019-01-06T18:48:29.620Z,5.96
2019-01-06T18:51:32.795Z,5.96
2019-01-06T18:54:21.008Z,5.92
2019-01-06T18:57:08.593Z,5.91
2019-01-06T19:00:06.483Z,5.93
2019-01-06T19:02:50.370Z,5.89
2019-01-06T19:05:46.293Z,5.91
2019-01-06T19:08:30.690Z,5.86
2019-01-06T19:11:17.609Z,5.87
2019-01-06T19:14:05.765Z,5.84
2019-01-06T19:17:07.691Z,5.81
2019-01-06T19:19:55.594Z,5.85
2019-01-06T19:22:44.035Z,5.76
2019-01-06T19:25:31.729Z,5.79
2019-01-06T19:28:18.605Z,5.76
2019-01-06T19:31:05.782Z,5.78
2019-01-06T19:33:57.903Z,5.73
2019-01-06T19:36:46.702Z,5.68
2019-01-06T19:39:51.146Z,5.68
2019-01-06T19:42:33.898Z,5.68
2019-01-06T19:45:29.423Z,5.59
2019-01-06T19:48:23.584Z,5.65
2019-01-06T19:51:15.225Z,5.63
2019-01-06T19:54:07.206Z,5.69
2019-01-06T19:57:15.808Z,5.74
2019-01-06T20:00:24.406Z,5.79
2019-01-06T20:03:15.751Z,5.78
2019-01-06T20:06:07.544Z,5.74
2019-01-06T20:09:00.401Z,5.79
2019-01-06T20:11:56.532Z,5.74
2019-01-06T20:14:53.892Z,5.76
2019-01-06T20:17:42.105Z,5.72
2019-01-06T20:20:39.676Z,5.73
2019-01-06T20:23:28.246Z,5.75
2019-01-06T20:26:25.496Z,5.75
2019-01-06T20:29:26.029Z,5.71
2019-01-06T20:32:29.161Z,5.77
2019-01-06T20:35:18.476Z,5.72
2019-01-06T20:38:05.301Z,5.68
2019-01-06T20:40:59.098Z,5.69
2019-01-06T20:43:54.296Z,5.72
2019-01-06T20:46:41.523Z,5.69
2019-01-06T20:49:49.454Z,5.65
2019-01-06T20:52:47.614Z,5.65
2019-01-06T20:55:39.787Z,5.65
2019-01-06T20:58:30.698Z,5.64
2019-01-06T21:01:23.922Z,5.61
2019-01-06T21:04:29.182Z,5.67
2019-01-06T21:07:16.031Z,5.64
2019-01-06T21:10:11.306Z,5.59
2019-01-06T21:13:00.116Z,5.59
2019-01-06T21:15:51.385Z,5.58
2019-01-06T21:18:47.478Z,5.59
2019-01-06T21:21:34.869Z,5.53
2019-01-06T21:24:23.417Z,5.55
2019-01-06T21:27:15.843Z,5.56
2019-01-06T21:30:07.103Z,5.58
2019-01-06T21:33:05.067Z,5.53
2019-01-06T21:36:03.026Z,5.51
2019-01-06T21:38:58.087Z,5.52
2019-01-06T21:41:52.433Z,5.49
2019-01-06T21:44:44.249Z,5.46
2019-01-06T21:47:31.443Z,5.48
2019-01-06T21:50:14.698Z,5.47
2019-01-06T21:53:02.106Z,5.48
2019-01-06T21:55:54.707Z,5.45
2019-01-06T21:58:54.934Z,5.44
2019-01-06T22:02:04.552Z,5.44
2019-01-06T22:04:59.111Z,5.43
2019-01-06T22:07:47.498Z,5.42
2019-01-06T22:10:39.992Z,5.36
2019-01-06T22:13:37.545Z,5.36
2019-01-06T22:16:24.663Z,5.36
2019-01-06T22:19:11.852Z,5.35
2019-01-06T22:21:58.839Z,5.40
2019-01-06T22:24:47.975Z,5.39
2019-01-06T22:27:35.230Z,5.43
2019-01-06T22:30:35.388Z,5.40
2019-01-06T22:33:19.746Z,5.35
2019-01-06T22:36:02.475Z,5.42
2019-01-06T22:38:57.664Z,5.33
2019-01-06T22:41:53.911Z,5.39
2019-01-06T22:44:47.980Z,5.41
2019-01-06T22:47:37.001Z,5.39
2019-01-06T22:50:25.273Z,5.38
2019-01-06T22:53:15.658Z,5.37
2019-01-06T22:56:05.426Z,5.39
2019-01-06T22:59:08.797Z,5.37
2019-01-06T23:01:58.631Z,5.38
2019-01-06T23:05:03.399Z,5.35
2019-01-06T23:07:52.392Z,5.35
2019-01-06T23:10:39.446Z,5.34
2019-01-06T23:13:38.474Z,5.35
2019-01-06T23:16:29.352Z,5.32
2019-01-06T23:19:23.749Z,5.33
2019-01-06T23:22:20.727Z,5.33
2019-01-06T23:25:12.899Z,5.31
2019-01-06T23:28:00.199Z,5.33
2019-01-06T23:30:50.150Z,5.36
2019-01-06T23:33:40.821Z,5.36
2019-01-06T23:36:45.409Z,5.36
2019-01-06T23:39:49.884Z,5.31
2019-01-06T23:42:48.915Z,5.33
2019-01-06T23:45:52.989Z,5.31
2019-01-06T23:48:47.177Z,5.29
2019-01-06T23:51:34.881Z,5.29
2019-01-06T23:54:24.350Z,5.27
2019-01-06T23:57:22.521Z,5.36
